createdAt,value
2022-09-28T00:01:56.433Z,99562.47
2022-09-28T00:05:17.939Z,99555.47
2022-09-28T00:08:40.209Z,99554.81
2022-09-28T00:12:02.057Z,99549.13
2022-09-28T00:15:24.699Z,99545.13
2022-09-28T00:18:50.082Z,99546.09
2022-09-28T00:22:11.714Z,99543.09
2022-09-28T00:25:33.825Z,99545.38
2022-09-28T00:28:56.158Z,99544.03
2022-09-28T00:32:17.368Z,99543.50
2022-09-28T00:35:40.466Z,99538.50
2022-09-28T00:39:06.426Z,99540.78
2022-09-28T00:42:28.172Z,99541.94
2022-09-28T00:45:58.435Z,99541.41
2022-09-28T00:49:23.673Z,99540.88
2022-09-28T00:52:55.167Z,99536.69
2022-09-28T00:56:20.274Z,99535.88
2022-09-28T00:59:43.338Z,99539.53
2022-09-28T01:03:05.277Z,99528.03
2022-09-28T01:06:31.105Z,99537.84
2022-09-28T01:09:56.353Z,99537.84
2022-09-28T01:13:19.001Z,99533.34
2022-09-28T01:16:46.892Z,99543.16
2022-09-28T01:20:58.134Z,99541.34
2022-09-28T01:24:42.033Z,99537.84
2022-09-28T01:28:08.837Z,99535.88
2022-09-28T01:31:34.107Z,99531.38
2022-09-28T01:34:59.935Z,99531.25
2022-09-28T01:38:25.266Z,99527.91
2022-09-28T01:41:53.200Z,99532.38
2022-09-28T01:45:22.647Z,99525.25
2022-09-28T01:48:51.699Z,99524.38
2022-09-28T01:52:19.047Z,99519.94
2022-09-28T01:55:45.329Z,99523.56
2022-09-28T01:59:11.711Z,99526.06
2022-09-28T02:02:40.878Z,99518.94
2022-09-28T02:06:08.052Z,99519.94
2022-09-28T02:09:35.382Z,99522.72
2022-09-28T02:13:01.371Z,99522.72
2022-09-28T02:16:32.696Z,99520.06
2022-09-28T02:19:56.541Z,99523.72
2022-09-28T02:23:19.529Z,99518.41
2022-09-28T02:26:44.692Z,99518.41
2022-09-28T02:30:07.969Z,99516.59
2022-09-28T02:33:34.042Z,99516.72
2022-09-28T02:36:56.971Z,99513.94
2022-09-28T02:40:21.592Z,99511.28
2022-09-28T02:43:57.063Z,99513.09
2022-09-28T02:47:33.076Z,99515.59
2022-09-28T02:51:06.000Z,99501.47
2022-09-28T02:54:52.864Z,99504.97
2022-09-28T02:58:25.581Z,99509.44
2022-09-28T03:01:57.343Z,99509.28
2022-09-28T03:05:23.038Z,99510.97
2022-09-28T03:08:49.621Z,99504.78
2022-09-28T03:12:18.492Z,99502.13
2022-09-28T03:15:45.169Z,99502.00
2022-09-28T03:19:09.349Z,99490.38
2022-09-28T03:22:30.731Z,99493.56
2022-09-28T03:25:51.950Z,99490.91
2022-09-28T03:29:15.095Z,99486.41
2022-09-28T03:32:40.110Z,99492.41
2022-09-28T03:36:02.204Z,99487.09
2022-09-28T03:39:24.168Z,99481.75
2022-09-28T03:42:45.987Z,99478.13
2022-09-28T03:46:09.259Z,99477.97
2022-09-28T03:49:35.993Z,99470.81
2022-09-28T03:53:03.459Z,99472.81
2022-09-28T03:56:25.402Z,99470.13
2022-09-28T03:59:46.710Z,99463.16
2022-09-28T04:03:10.250Z,99469.47
2022-09-28T04:06:31.759Z,99461.94
2022-09-28T04:09:53.409Z,99470.91
2022-09-28T04:13:15.442Z,99466.75
2022-09-28T04:16:37.161Z,99460.78
2022-09-28T04:20:05.493Z,99462.75
2022-09-28T04:23:36.953Z,99463.22
2022-09-28T04:27:18.785Z,99456.53
2022-09-28T04:30:39.404Z,99455.19
2022-09-28T04:34:01.309Z,99450.31
2022-09-28T04:37:24.599Z,99448.97
2022-09-28T04:40:45.861Z,99447.63
2022-09-28T04:44:08.172Z,99448.06
2022-09-28T04:47:30.856Z,99447.56
2022-09-28T04:51:25.358Z,99445.53
2022-09-28T04:54:48.478Z,99438.31
2022-09-28T04:58:11.349Z,99446.44
2022-09-28T05:01:32.699Z,99440.44
2022-09-28T05:04:55.325Z,99440.75
2022-09-28T05:08:40.238Z,99446.38
2022-09-28T05:12:03.501Z,99445.00
2022-09-28T05:15:25.065Z,99445.31
2022-09-28T05:18:47.383Z,99450.63
2022-09-28T05:22:13.904Z,99454.94
2022-09-28T05:25:39.495Z,99450.47
2022-09-28T05:29:11.414Z,99455.63
2022-09-28T05:32:42.341Z,99449.19
2022-09-28T05:36:16.099Z,99456.69
2022-09-28T05:39:37.842Z,99458.72
2022-09-28T05:43:03.322Z,99459.13
2022-09-28T05:46:28.171Z,99461.16
2022-09-28T05:49:52.948Z,99460.66
2022-09-28T05:53:14.654Z,99466.66
2022-09-28T05:56:36.357Z,99469.19
2022-09-28T06:00:00.673Z,99469.84
2022-09-28T06:03:24.336Z,99468.56
2022-09-28T06:06:46.065Z,99461.94
2022-09-28T06:10:08.493Z,99467.25
2022-09-28T06:13:37.412Z,99459.97
2022-09-28T06:16:59.298Z,99465.66
2022-09-28T06:20:22.050Z,99465.38
2022-09-28T06:24:03.303Z,99457.38
2022-09-28T06:27:24.804Z,99457.22
2022-09-28T06:30:48.199Z,99466.84
2022-09-28T06:34:12.724Z,99455.91
2022-09-28T06:37:35.775Z,99458.44
2022-09-28T06:40:58.914Z,99461.75
2022-09-28T06:44:20.807Z,99465.09
2022-09-28T06:48:16.470Z,99456.13
2022-09-28T06:51:38.044Z,99449.97
2022-09-28T06:55:14.568Z,99458.28
2022-09-28T06:58:38.552Z,99455.84
2022-09-28T07:02:00.333Z,99451.75
2022-09-28T07:05:43.669Z,99450.97
2022-09-28T07:09:32.214Z,99453.97
2022-09-28T07:13:49.172Z,99444.50
2022-09-28T07:17:14.591Z,99452.03
2022-09-28T07:20:50.799Z,99447.06
2022-09-28T07:24:15.191Z,99453.25
2022-09-28T07:28:09.454Z,99448.81
2022-09-28T07:31:57.486Z,99451.63
2022-09-28T07:35:34.381Z,99448.50
2022-09-28T07:38:56.087Z,99447.88
2022-09-28T07:42:18.088Z,99451.22
2022-09-28T07:45:39.537Z,99453.06
2022-09-28T07:49:08.367Z,99455.25
2022-09-28T07:53:08.328Z,99448.28
2022-09-28T07:56:43.371Z,99449.28
2022-09-28T08:00:25.335Z,99446.94
2022-09-28T08:03:47.133Z,99451.63
2022-09-28T08:07:12.301Z,99446.81
2022-09-28T08:10:35.578Z,99448.97
2022-09-28T08:14:19.770Z,99442.31
2022-09-28T08:17:57.976Z,99440.13
2022-09-28T08:21:47.750Z,99435.81
2022-09-28T08:25:11.192Z,99439.31
2022-09-28T08:28:32.571Z,99436.63
2022-09-28T08:32:01.514Z,99435.63
2022-09-28T08:35:29.396Z,99439.44
2022-09-28T08:39:20.467Z,99447.41
2022-09-28T08:43:29.814Z,99455.25
2022-09-28T08:46:59.905Z,99452.06
2022-09-28T08:50:50.981Z,99459.91
2022-09-28T08:54:29.998Z,99448.19
2022-09-28T08:57:59.139Z,99453.03
2022-09-28T09:01:27.668Z,99455.47
2022-09-28T09:04:51.967Z,99457.28
2022-09-28T09:08:38.265Z,99449.41
2022-09-28T09:12:08.256Z,99443.22
2022-09-28T09:15:43.679Z,99442.31
2022-09-28T09:19:24.746Z,99451.47
2022-09-28T09:23:09.017Z,99439.28
2022-09-28T09:26:39.314Z,99443.41
2022-09-28T09:30:07.439Z,99445.38
2022-09-28T09:34:04.715Z,99442.84
2022-09-28T09:38:00.217Z,99445.44
2022-09-28T09:41:57.204Z,99441.91
2022-09-28T09:46:08.024Z,99446.53
2022-09-28T09:50:05.535Z,99442.50
2022-09-28T09:53:39.906Z,99443.63
2022-09-28T09:57:11.106Z,99434.41
2022-09-28T10:00:57.303Z,99439.22
2022-09-28T10:04:44.596Z,99443.84
2022-09-28T10:08:18.840Z,99443.47
2022-09-28T10:11:44.608Z,99437.97
2022-09-28T10:15:10.043Z,99439.63
2022-09-28T10:18:43.102Z,99439.06
2022-09-28T10:22:27.289Z,99438.06
2022-09-28T10:25:53.633Z,99439.75
2022-09-28T10:29:17.946Z,99441.41
2022-09-28T10:32:45.608Z,99438.38
2022-09-28T10:36:08.457Z,99439.00
2022-09-28T10:39:34.354Z,99443.72
2022-09-28T10:43:01.772Z,99448.41
2022-09-28T10:46:26.271Z,99448.56
2022-09-28T10:49:52.001Z,99449.59
2022-09-28T10:53:20.594Z,99440.06
2022-09-28T10:57:29.296Z,99440.44
2022-09-28T11:01:03.404Z,99444.13
2022-09-28T11:04:32.760Z,99442.47
2022-09-28T11:07:55.742Z,99447.66
2022-09-28T11:11:22.196Z,99444.13
2022-09-28T11:14:59.360Z,99436.09
2022-09-28T11:18:27.468Z,99440.81
2022-09-28T11:21:51.075Z,99444.50
2022-09-28T11:25:22.146Z,99442.19
2022-09-28T11:28:43.678Z,99430.47
2022-09-28T11:32:16.099Z,99435.47
2022-09-28T11:36:10.299Z,99426.06
2022-09-28T11:39:41.974Z,99434.19
2022-09-28T11:43:14.405Z,99433.03
2022-09-28T11:46:50.538Z,99429.63
2022-09-28T11:50:24.398Z,99431.59
2022-09-28T11:53:52.293Z,99431.22
2022-09-28T11:57:22.165Z,99430.69
2022-09-28T12:00:50.766Z,99438.34
2022-09-28T12:04:22.665Z,99427.06
2022-09-28T12:07:49.367Z,99432.53
2022-09-28T12:11:36.958Z,99433.66
2022-09-28T12:15:18.508Z,99428.94
2022-09-28T12:18:47.934Z,99426.91
2022-09-28T12:22:18.226Z,99423.03
2022-09-28T12:25:46.506Z,99421.84
2022-09-28T12:29:14.810Z,99420.44
2022-09-28T12:32:42.596Z,99431.81
2022-09-28T12:36:11.046Z,99430.78
2022-09-28T12:39:57.600Z,99428.38
2022-09-28T12:43:33.851Z,99420.63
2022-09-28T12:47:20.565Z,99422.09
2022-09-28T12:50:56.968Z,99416.91
2022-09-28T12:54:43.317Z,99420.63
2022-09-28T12:58:21.102Z,99423.66
2022-09-28T13:02:01.167Z,99423.22
2022-09-28T13:05:44.319Z,99431.44
2022-09-28T13:09:19.963Z,99432.81
2022-09-28T13:12:53.850Z,99431.53
2022-09-28T13:16:24.796Z,99446.66
2022-09-28T13:19:53.910Z,99448.41
2022-09-28T13:23:22.144Z,99455.47
2022-09-28T13:26:48.479Z,99450.88
2022-09-28T13:30:17.199Z,99457.31
2022-09-28T13:33:42.754Z,99455.06
2022-09-28T13:37:21.638Z,99455.00
2022-09-28T13:41:13.575Z,99454.75
2022-09-28T13:45:02.643Z,99456.03
2022-09-28T13:48:34.367Z,99458.28
2022-09-28T13:52:07.745Z,99461.19
2022-09-28T13:55:38.776Z,99463.91
2022-09-28T13:59:05.255Z,99464.78
2022-09-28T14:02:36.504Z,99472.66
2022-09-28T14:06:11.505Z,99475.22
2022-09-28T14:09:45.519Z,99482.91
2022-09-28T14:13:10.388Z,99491.28
2022-09-28T14:16:33.574Z,99490.78
2022-09-28T14:20:02.115Z,99497.63
2022-09-28T14:23:48.470Z,99504.84
2022-09-28T14:27:28.452Z,99502.88
2022-09-28T14:30:53.289Z,99503.69
2022-09-28T14:34:27.874Z,99509.22
2022-09-28T14:38:10.554Z,99514.09
2022-09-28T14:41:36.412Z,99523.44
2022-09-28T14:45:36.647Z,99531.25
2022-09-28T14:49:01.698Z,99517.91
2022-09-28T14:52:41.862Z,99525.59
2022-09-28T14:56:09.958Z,99515.25
2022-09-28T14:59:36.265Z,99524.91
2022-09-28T15:03:01.931Z,99527.06
2022-09-28T15:06:24.667Z,99533.91
2022-09-28T15:09:49.579Z,99539.72
2022-09-28T15:13:21.992Z,99541.72
2022-09-28T15:16:43.413Z,99537.38
2022-09-28T15:20:24.085Z,99542.38
2022-09-28T15:23:46.924Z,99539.84
2022-09-28T15:27:19.032Z,99541.84
2022-09-28T15:30:42.448Z,99541.84
2022-09-28T15:34:27.208Z,99538.19
2022-09-28T15:37:51.990Z,99541.84
2022-09-28T15:41:13.495Z,99542.69
2022-09-28T15:44:37.950Z,99548.84
2022-09-28T15:48:21.511Z,99533.88
2022-09-28T15:51:52.154Z,99542.03
2022-09-28T15:55:22.247Z,99541.19
2022-09-28T15:58:44.548Z,99545.69
2022-09-28T16:02:15.757Z,99549.19
2022-09-28T16:05:45.331Z,99552.03
2022-09-28T16:09:38.929Z,99553.00
2022-09-28T16:13:15.558Z,99547.50
2022-09-28T16:16:46.496Z,99562.69
2022-09-28T16:20:23.117Z,99556.50
2022-09-28T16:23:52.213Z,99563.66
2022-09-28T16:27:26.603Z,99569.16
2022-09-28T16:31:01.771Z,99575.66
2022-09-28T16:34:27.201Z,99578.47
2022-09-28T16:37:55.448Z,99578.47
2022-09-28T16:41:23.564Z,99573.47
2022-09-28T16:44:45.005Z,99573.78
2022-09-28T16:48:06.888Z,99580.09
2022-09-28T16:51:28.601Z,99580.44
2022-09-28T16:55:17.813Z,99581.25
2022-09-28T16:58:50.690Z,99588.91
2022-09-28T17:02:42.358Z,99586.44
2022-09-28T17:05:59.716Z,99590.09
2022-09-28T17:09:21.943Z,99585.75
2022-09-28T17:12:43.416Z,99592.91
2022-09-28T17:16:11.142Z,99595.88
2022-09-28T17:19:33.080Z,99594.22
2022-09-28T17:22:55.026Z,99597.88
2022-09-28T17:26:20.289Z,99600.72
2022-09-28T17:29:42.023Z,99606.03
2022-09-28T17:33:04.851Z,99598.38
2022-09-28T17:36:26.932Z,99610.00
2022-09-28T17:39:48.486Z,99610.16
2022-09-28T17:43:10.359Z,99613.16
2022-09-28T17:46:34.770Z,99614.97
2022-09-28T17:49:58.497Z,99615.28
2022-09-28T17:53:20.249Z,99614.59
2022-09-28T17:56:42.642Z,99618.44
2022-09-28T18:00:04.573Z,99620.25
2022-09-28T18:03:26.937Z,99614.91
2022-09-28T18:06:50.999Z,99620.41
2022-09-28T18:10:15.611Z,99623.09
2022-09-28T18:13:37.800Z,99627.88
2022-09-28T18:16:59.359Z,99627.19
2022-09-28T18:20:21.586Z,99633.63
2022-09-28T18:23:44.633Z,99640.94
2022-09-28T18:27:06.054Z,99642.09
2022-09-28T18:30:28.699Z,99650.09
2022-09-28T18:33:50.274Z,99653.06
2022-09-28T18:37:12.143Z,99654.19
2022-09-28T18:40:35.939Z,99654.38
2022-09-28T18:44:00.772Z,99651.84
2022-09-28T18:47:22.513Z,99657.34
2022-09-28T18:50:44.066Z,99651.31
2022-09-28T18:54:07.088Z,99661.81
2022-09-28T18:57:33.162Z,99663.94
2022-09-28T19:01:08.502Z,99668.28
2022-09-28T19:04:36.608Z,99666.78
2022-09-28T19:07:58.318Z,99674.59
2022-09-28T19:11:20.193Z,99677.25
2022-09-28T19:14:43.730Z,99678.91
2022-09-28T19:18:05.458Z,99672.59
2022-09-28T19:21:27.846Z,99677.09
2022-09-28T19:24:49.428Z,99671.91
2022-09-28T19:28:11.546Z,99692.53
2022-09-28T19:31:34.439Z,99692.69
2022-09-28T19:34:56.442Z,99697.16
2022-09-28T19:38:18.436Z,99692.69
2022-09-28T19:41:44.317Z,99693.53
2022-09-28T19:45:07.385Z,99696.19
2022-09-28T19:48:30.395Z,99706.81
2022-09-28T19:52:13.713Z,99697.16
2022-09-28T19:55:36.194Z,99697.03
2022-09-28T19:58:58.262Z,99702.50
2022-09-28T20:02:20.110Z,99703.66
2022-09-28T20:05:43.406Z,99700.31
2022-09-28T20:09:04.991Z,99710.28
2022-09-28T20:12:26.990Z,99709.41
2022-09-28T20:15:48.872Z,99712.25
2022-09-28T20:19:10.309Z,99708.75
2022-09-28T20:22:33.358Z,99716.03
2022-09-28T20:25:54.641Z,99719.69
2022-09-28T20:29:16.003Z,99713.38
2022-09-28T20:32:38.292Z,99715.19
2022-09-28T20:36:05.596Z,99719.69
2022-09-28T20:39:28.671Z,99717.03
2022-09-28T20:42:50.054Z,99718.84
2022-09-28T20:46:12.596Z,99721.66
2022-09-28T20:49:34.286Z,99730.63
2022-09-28T20:52:56.066Z,99732.44
2022-09-28T20:56:21.247Z,99726.44
2022-09-28T20:59:43.027Z,99730.09
2022-09-28T21:03:05.069Z,99739.91
2022-09-28T21:06:29.064Z,99745.53
2022-09-28T21:09:50.767Z,99748.50
2022-09-28T21:13:13.599Z,99750.47
2022-09-28T21:16:35.960Z,99757.78
2022-09-28T21:19:57.230Z,99762.38
2022-09-28T21:23:24.569Z,99763.38
2022-09-28T21:26:46.394Z,99766.72
2022-09-28T21:30:10.554Z,99766.19
2022-09-28T21:33:32.023Z,99776.97
2022-09-28T21:36:54.695Z,99769.00
2022-09-28T21:40:16.722Z,99777.25
2022-09-28T21:43:38.383Z,99780.09
2022-09-28T21:47:01.621Z,99776.75
2022-09-28T21:50:25.067Z,99791.84
2022-09-28T21:53:48.475Z,99795.34
2022-09-28T21:57:10.543Z,99796.34
2022-09-28T22:00:32.373Z,99796.34
2022-09-28T22:03:57.228Z,99804.47
2022-09-28T22:07:19.011Z,99799.81
2022-09-28T22:10:40.205Z,99804.16
2022-09-28T22:14:01.488Z,99801.50
2022-09-28T22:17:22.780Z,99800.28
2022-09-28T22:20:45.306Z,99798.88
2022-09-28T22:24:08.801Z,99802.00
2022-09-28T22:27:32.876Z,99804.28
2022-09-28T22:30:54.953Z,99807.38
2022-09-28T22:34:16.654Z,99807.97
2022-09-28T22:37:39.597Z,99809.66
2022-09-28T22:41:01.388Z,99809.41
2022-09-28T22:44:22.957Z,99813.63
2022-09-28T22:47:44.943Z,99818.00
2022-09-28T22:51:07.695Z,99807.94
2022-09-28T22:54:30.698Z,99821.78
2022-09-28T22:57:52.195Z,99813.72
2022-09-28T23:01:17.244Z,99810.78
2022-09-28T23:04:39.102Z,99818.50
2022-09-28T23:08:00.453Z,99820.88
2022-09-28T23:11:23.686Z,99815.16
2022-09-28T23:14:44.987Z,99821.56
2022-09-28T23:18:08.405Z,99820.34
2022-09-28T23:21:29.789Z,99812.78
2022-09-28T23:24:51.043Z,99815.69
2022-09-28T23:28:14.130Z,99818.75
2022-09-28T23:31:35.776Z,99819.03
2022-09-28T23:34:57.255Z,99818.22
2022-09-28T23:38:19.388Z,99815.84
2022-09-28T23:41:40.913Z,99811.75
2022-09-28T23:45:03.755Z,99821.69
2022-09-28T23:48:25.131Z,99825.75
2022-09-28T23:51:47.105Z,99827.00
2022-09-28T23:55:09.458Z,99832.72
